sensor_id;sensor_type;location;lat;lon;timestamp;P1;durP1;ratioP1;P2;durP2;ratioP2
10009;SDS011;5044;48.652;9.250;2023-02-28T00:00:09;3.58;;;1.65;;
10009;SDS011;5044;48.652;9.250;2023-02-28T00:02:38;1.98;;;1.40;;
10009;SDS011;5044;48.652;9.250;2023-02-28T00:05:06;3.45;;;1.42;;
10009;SDS011;5044;48.652;9.250;2023-02-28T00:07:36;3.30;;;1.45;;
10009;SDS011;5044;48.652;9.250;2023-02-28T00:10:04;2.95;;;1.30;;
10009;SDS011;5044;48.652;9.250;2023-02-28T00:12:32;2.75;;;1.40;;
10009;SDS011;5044;48.652;9.250;2023-02-28T00:14:59;2.33;;;1.55;;
10009;SDS011;5044;48.652;9.250;2023-02-28T00:17:28;4.07;;;1.48;;
10009;SDS011;5044;48.652;9.250;2023-02-28T00:19:55;2.47;;;1.40;;
10009;SDS011;5044;48.652;9.250;2023-02-28T00:22:26;4.70;;;1.55;;
10009;SDS011;5044;48.652;9.250;2023-02-28T00:24:55;4.22;;;1.63;;
10009;SDS011;5044;48.652;9.250;2023-02-28T00:27:22;2.13;;;1.50;;
10009;SDS011;5044;48.652;9.250;2023-02-28T00:29:49;7.05;;;2.03;;
10009;SDS011;5044;48.652;9.250;2023-02-28T00:32:16;3.63;;;1.63;;
10009;SDS011;5044;48.652;9.250;2023-02-28T00:34:43;4.97;;;1.85;;
10009;SDS011;5044;48.652;9.250;2023-02-28T00:37:11;6.78;;;1.65;;
10009;SDS011;5044;48.652;9.250;2023-02-28T00:39:38;2.50;;;1.50;;
10009;SDS011;5044;48.652;9.250;2023-02-28T00:42:07;2.95;;;1.55;;
10009;SDS011;5044;48.652;9.250;2023-02-28T00:44:34;2.90;;;1.70;;
10009;SDS011;5044;48.652;9.250;2023-02-28T00:47:01;1.80;;;1.25;;
10009;SDS011;5044;48.652;9.250;2023-02-28T00:49:28;4.55;;;1.55;;
10009;SDS011;5044;48.652;9.250;2023-02-28T00:51:55;3.50;;;1.65;;
10009;SDS011;5044;48.652;9.250;2023-02-28T00:54:22;4.63;;;1.75;;
10009;SDS011;5044;48.652;9.250;2023-02-28T00:56:49;2.85;;;2.00;;
10009;SDS011;5044;48.652;9.250;2023-02-28T00:59:18;3.65;;;2.00;;
10009;SDS011;5044;48.652;9.250;2023-02-28T01:01:46;3.70;;;1.42;;
10009;SDS011;5044;48.652;9.250;2023-02-28T01:04:13;4.80;;;1.52;;
10009;SDS011;5044;48.652;9.250;2023-02-28T01:06:40;3.88;;;1.70;;
10009;SDS011;5044;48.652;9.250;2023-02-28T01:09:08;6.07;;;1.80;;
10009;SDS011;5044;48.652;9.250;2023-02-28T01:11:35;6.40;;;2.33;;
10009;SDS011;5044;48.652;9.250;2023-02-28T01:14:02;3.78;;;1.90;;
10009;SDS011;5044;48.652;9.250;2023-02-28T01:16:31;4.70;;;1.73;;
10009;SDS011;5044;48.652;9.250;2023-02-28T01:18:58;9.95;;;1.75;;
10009;SDS011;5044;48.652;9.250;2023-02-28T01:21:25;2.85;;;1.58;;
10009;SDS011;5044;48.652;9.250;2023-02-28T01:23:52;3.20;;;1.67;;
10009;SDS011;5044;48.652;9.250;2023-02-28T01:26:24;5.32;;;1.52;;
10009;SDS011;5044;48.652;9.250;2023-02-28T01:28:51;4.03;;;1.90;;
10009;SDS011;5044;48.652;9.250;2023-02-28T01:31:19;3.70;;;1.45;;
10009;SDS011;5044;48.652;9.250;2023-02-28T01:33:48;1.77;;;1.38;;
10009;SDS011;5044;48.652;9.250;2023-02-28T01:36:17;2.92;;;1.33;;
10009;SDS011;5044;48.652;9.250;2023-02-28T01:38:45;2.75;;;1.23;;
10009;SDS011;5044;48.652;9.250;2023-02-28T01:41:15;4.18;;;1.80;;
10009;SDS011;5044;48.652;9.250;2023-02-28T01:43:54;4.32;;;2.15;;
10009;SDS011;5044;48.652;9.250;2023-02-28T01:46:23;3.95;;;2.25;;
10009;SDS011;5044;48.652;9.250;2023-02-28T01:48:53;2.15;;;1.50;;
10009;SDS011;5044;48.652;9.250;2023-02-28T01:51:25;5.65;;;2.20;;
10009;SDS011;5044;48.652;9.250;2023-02-28T01:53:56;3.67;;;1.43;;
10009;SDS011;5044;48.652;9.250;2023-02-28T01:56:26;6.75;;;1.77;;
10009;SDS011;5044;48.652;9.250;2023-02-28T01:58:56;3.22;;;1.70;;
10009;SDS011;5044;48.652;9.250;2023-02-28T02:01:24;4.50;;;1.73;;
10009;SDS011;5044;48.652;9.250;2023-02-28T02:03:55;3.50;;;1.80;;
10009;SDS011;5044;48.652;9.250;2023-02-28T02:06:24;3.97;;;1.75;;
10009;SDS011;5044;48.652;9.250;2023-02-28T02:08:53;2.88;;;1.98;;
10009;SDS011;5044;48.652;9.250;2023-02-28T02:11:20;5.35;;;1.52;;
10009;SDS011;5044;48.652;9.250;2023-02-28T02:13:54;4.28;;;1.88;;
10009;SDS011;5044;48.652;9.250;2023-02-28T02:16:43;5.75;;;2.20;;
10009;SDS011;5044;48.652;9.250;2023-02-28T02:19:26;3.33;;;1.60;;
10009;SDS011;5044;48.652;9.250;2023-02-28T02:22:12;3.55;;;2.08;;
10009;SDS011;5044;48.652;9.250;2023-02-28T02:36:53;5.07;;;1.42;;
10009;SDS011;5044;48.652;9.250;2023-02-28T02:39:30;9.02;;;1.90;;
10009;SDS011;5044;48.652;9.250;2023-02-28T02:42:02;3.28;;;2.03;;
10009;SDS011;5044;48.652;9.250;2023-02-28T02:44:38;3.15;;;1.90;;
10009;SDS011;5044;48.652;9.250;2023-02-28T02:47:10;4.15;;;2.10;;
10009;SDS011;5044;48.652;9.250;2023-02-28T02:49:42;6.88;;;1.92;;
10009;SDS011;5044;48.652;9.250;2023-02-28T02:52:12;5.90;;;2.28;;
10009;SDS011;5044;48.652;9.250;2023-02-28T02:54:45;4.63;;;2.00;;
10009;SDS011;5044;48.652;9.250;2023-02-28T02:57:15;5.32;;;2.20;;
10009;SDS011;5044;48.652;9.250;2023-02-28T02:59:49;3.17;;;2.00;;
10009;SDS011;5044;48.652;9.250;2023-02-28T03:02:18;4.93;;;2.10;;
10009;SDS011;5044;48.652;9.250;2023-02-28T03:04:50;7.72;;;2.63;;
10009;SDS011;5044;48.652;9.250;2023-02-28T03:07:19;5.03;;;2.55;;
10009;SDS011;5044;48.652;9.250;2023-02-28T03:09:50;2.53;;;1.98;;
10009;SDS011;5044;48.652;9.250;2023-02-28T03:12:18;3.15;;;2.13;;
10009;SDS011;5044;48.652;9.250;2023-02-28T03:14:49;5.97;;;1.80;;
10009;SDS011;5044;48.652;9.250;2023-02-28T03:20:30;5.38;;;2.08;;
10009;SDS011;5044;48.652;9.250;2023-02-28T03:23:07;3.80;;;2.25;;
10009;SDS011;5044;48.652;9.250;2023-02-28T03:25:43;4.18;;;2.00;;
10009;SDS011;5044;48.652;9.250;2023-02-28T03:28:19;3.97;;;2.10;;
10009;SDS011;5044;48.652;9.250;2023-02-28T03:30:55;4.25;;;2.10;;
10009;SDS011;5044;48.652;9.250;2023-02-28T03:33:27;4.38;;;2.42;;
10009;SDS011;5044;48.652;9.250;2023-02-28T03:35:58;3.33;;;2.22;;
10009;SDS011;5044;48.652;9.250;2023-02-28T03:38:29;4.07;;;2.10;;
10009;SDS011;5044;48.652;9.250;2023-02-28T03:41:01;5.05;;;2.42;;
10009;SDS011;5044;48.652;9.250;2023-02-28T03:46:02;4.38;;;2.53;;
10009;SDS011;5044;48.652;9.250;2023-02-28T03:48:34;5.85;;;2.40;;
10009;SDS011;5044;48.652;9.250;2023-02-28T03:51:07;6.28;;;2.35;;
10009;SDS011;5044;48.652;9.250;2023-02-28T03:53:37;4.93;;;2.35;;
10009;SDS011;5044;48.652;9.250;2023-02-28T03:56:11;2.65;;;1.73;;
10009;SDS011;5044;48.652;9.250;2023-02-28T03:58:41;4.80;;;1.90;;
10009;SDS011;5044;48.652;9.250;2023-02-28T04:03:44;4.20;;;1.95;;
10009;SDS011;5044;48.652;9.250;2023-02-28T04:06:14;4.00;;;2.03;;
10009;SDS011;5044;48.652;9.250;2023-02-28T04:08:43;3.13;;;1.75;;
10009;SDS011;5044;48.652;9.250;2023-02-28T04:11:14;3.30;;;2.08;;
10009;SDS011;5044;48.652;9.250;2023-02-28T04:13:46;3.63;;;2.20;;
10009;SDS011;5044;48.652;9.250;2023-02-28T04:16:13;5.70;;;2.00;;
10009;SDS011;5044;48.652;9.250;2023-02-28T04:18:40;6.00;;;2.33;;
10009;SDS011;5044;48.652;9.250;2023-02-28T04:21:09;3.97;;;2.40;;
10009;SDS011;5044;48.652;9.250;2023-02-28T04:23:38;3.85;;;2.17;;
10009;SDS011;5044;48.652;9.250;2023-02-28T04:26:07;4.25;;;1.92;;
10009;SDS011;5044;48.652;9.250;2023-02-28T04:28:34;4.53;;;2.33;;
10009;SDS011;5044;48.652;9.250;2023-02-28T04:31:03;4.70;;;2.53;;
10009;SDS011;5044;48.652;9.250;2023-02-28T04:33:31;4.13;;;2.58;;
10009;SDS011;5044;48.652;9.250;2023-02-28T04:35:59;4.53;;;2.15;;
10009;SDS011;5044;48.652;9.250;2023-02-28T04:38:27;6.50;;;2.25;;
10009;SDS011;5044;48.652;9.250;2023-02-28T04:40:58;5.18;;;2.80;;
10009;SDS011;5044;48.652;9.250;2023-02-28T04:43:25;5.55;;;2.72;;
10009;SDS011;5044;48.652;9.250;2023-02-28T04:45:52;4.65;;;2.72;;
10009;SDS011;5044;48.652;9.250;2023-02-28T04:48:22;3.90;;;2.00;;
10009;SDS011;5044;48.652;9.250;2023-02-28T04:50:49;3.30;;;2.00;;
10009;SDS011;5044;48.652;9.250;2023-02-28T04:53:17;8.60;;;2.50;;
10009;SDS011;5044;48.652;9.250;2023-02-28T04:55:45;3.28;;;2.30;;
10009;SDS011;5044;48.652;9.250;2023-02-28T04:58:13;4.95;;;2.15;;
10009;SDS011;5044;48.652;9.250;2023-02-28T05:00:41;5.78;;;2.45;;
10009;SDS011;5044;48.652;9.250;2023-02-28T05:03:08;4.28;;;2.40;;
10009;SDS011;5044;48.652;9.250;2023-02-28T05:05:35;3.10;;;2.20;;
10009;SDS011;5044;48.652;9.250;2023-02-28T05:08:02;4.15;;;2.35;;
10009;SDS011;5044;48.652;9.250;2023-02-28T05:10:30;4.88;;;2.63;;
10009;SDS011;5044;48.652;9.250;2023-02-28T05:12:57;5.30;;;2.80;;
10009;SDS011;5044;48.652;9.250;2023-02-28T05:15:25;4.18;;;2.35;;
10009;SDS011;5044;48.652;9.250;2023-02-28T05:17:53;5.40;;;2.42;;
10009;SDS011;5044;48.652;9.250;2023-02-28T05:20:20;5.97;;;2.72;;
10009;SDS011;5044;48.652;9.250;2023-02-28T05:22:47;4.32;;;2.47;;
10009;SDS011;5044;48.652;9.250;2023-02-28T05:25:16;4.53;;;3.10;;
10009;SDS011;5044;48.652;9.250;2023-02-28T05:27:45;6.47;;;3.08;;
10009;SDS011;5044;48.652;9.250;2023-02-28T05:30:12;6.10;;;3.22;;
10009;SDS011;5044;48.652;9.250;2023-02-28T05:32:40;7.45;;;3.08;;
10009;SDS011;5044;48.652;9.250;2023-02-28T05:35:09;3.88;;;2.53;;
10009;SDS011;5044;48.652;9.250;2023-02-28T05:37:37;6.50;;;3.33;;
10009;SDS011;5044;48.652;9.250;2023-02-28T05:40:05;5.82;;;2.70;;
10009;SDS011;5044;48.652;9.250;2023-02-28T05:42:35;5.40;;;2.63;;
10009;SDS011;5044;48.652;9.250;2023-02-28T05:45:02;6.53;;;3.03;;
10009;SDS011;5044;48.652;9.250;2023-02-28T05:47:29;4.20;;;3.03;;
10009;SDS011;5044;48.652;9.250;2023-02-28T05:49:58;7.10;;;3.25;;
10009;SDS011;5044;48.652;9.250;2023-02-28T05:52:26;7.25;;;3.42;;
10009;SDS011;5044;48.652;9.250;2023-02-28T05:54:53;5.97;;;3.25;;
10009;SDS011;5044;48.652;9.250;2023-02-28T05:57:20;8.82;;;3.38;;
10009;SDS011;5044;48.652;9.250;2023-02-28T05:59:47;4.80;;;2.65;;
10009;SDS011;5044;48.652;9.250;2023-02-28T06:02:14;5.13;;;3.10;;
10009;SDS011;5044;48.652;9.250;2023-02-28T06:04:43;8.60;;;3.88;;
10009;SDS011;5044;48.652;9.250;2023-02-28T06:07:11;5.40;;;2.53;;
10009;SDS011;5044;48.652;9.250;2023-02-28T06:09:38;4.70;;;2.70;;
10009;SDS011;5044;48.652;9.250;2023-02-28T06:12:05;6.25;;;3.42;;
10009;SDS011;5044;48.652;9.250;2023-02-28T06:14:34;6.93;;;2.90;;
10009;SDS011;5044;48.652;9.250;2023-02-28T06:17:02;5.65;;;3.13;;
10009;SDS011;5044;48.652;9.250;2023-02-28T06:19:29;4.18;;;2.65;;
10009;SDS011;5044;48.652;9.250;2023-02-28T06:21:57;4.95;;;2.72;;
10009;SDS011;5044;48.652;9.250;2023-02-28T06:24:26;5.18;;;3.58;;
10009;SDS011;5044;48.652;9.250;2023-02-28T06:27:05;3.50;;;2.38;;
10009;SDS011;5044;48.652;9.250;2023-02-28T06:29:32;5.38;;;2.63;;
10009;SDS011;5044;48.652;9.250;2023-02-28T06:32:00;6.68;;;2.83;;
10009;SDS011;5044;48.652;9.250;2023-02-28T06:34:27;4.88;;;2.97;;
10009;SDS011;5044;48.652;9.250;2023-02-28T06:36:54;5.18;;;3.53;;
10009;SDS011;5044;48.652;9.250;2023-02-28T06:39:21;7.10;;;3.03;;
10009;SDS011;5044;48.652;9.250;2023-02-28T06:41:50;6.10;;;2.90;;
10009;SDS011;5044;48.652;9.250;2023-02-28T06:44:17;8.15;;;3.78;;
10009;SDS011;5044;48.652;9.250;2023-02-28T06:46:48;9.45;;;3.53;;
10009;SDS011;5044;48.652;9.250;2023-02-28T06:49:15;3.60;;;2.75;;
10009;SDS011;5044;48.652;9.250;2023-02-28T06:51:44;5.90;;;2.72;;
10009;SDS011;5044;48.652;9.250;2023-02-28T06:54:11;6.25;;;3.17;;
10009;SDS011;5044;48.652;9.250;2023-02-28T06:56:38;5.15;;;2.65;;
10009;SDS011;5044;48.652;9.250;2023-02-28T06:59:07;4.63;;;3.40;;
10009;SDS011;5044;48.652;9.250;2023-02-28T07:01:34;5.70;;;3.53;;
10009;SDS011;5044;48.652;9.250;2023-02-28T07:04:01;6.65;;;2.85;;
10009;SDS011;5044;48.652;9.250;2023-02-28T07:06:28;5.70;;;3.10;;
10009;SDS011;5044;48.652;9.250;2023-02-28T07:08:55;3.55;;;2.38;;
10009;SDS011;5044;48.652;9.250;2023-02-28T07:11:23;8.48;;;4.20;;
10009;SDS011;5044;48.652;9.250;2023-02-28T07:13:54;6.18;;;3.05;;
10009;SDS011;5044;48.652;9.250;2023-02-28T07:16:24;3.42;;;2.55;;
10009;SDS011;5044;48.652;9.250;2023-02-28T07:18:52;11.55;;;4.07;;
10009;SDS011;5044;48.652;9.250;2023-02-28T07:21:19;8.20;;;3.60;;
10009;SDS011;5044;48.652;9.250;2023-02-28T07:23:47;7.07;;;4.00;;
10009;SDS011;5044;48.652;9.250;2023-02-28T07:26:15;6.65;;;3.17;;
10009;SDS011;5044;48.652;9.250;2023-02-28T07:28:44;5.93;;;3.88;;
10009;SDS011;5044;48.652;9.250;2023-02-28T07:31:16;4.43;;;3.20;;
10009;SDS011;5044;48.652;9.250;2023-02-28T07:33:45;6.28;;;3.13;;
10009;SDS011;5044;48.652;9.250;2023-02-28T07:36:13;9.30;;;4.43;;
10009;SDS011;5044;48.652;9.250;2023-02-28T07:38:44;5.93;;;3.50;;
10009;SDS011;5044;48.652;9.250;2023-02-28T07:41:13;10.23;;;3.97;;
10009;SDS011;5044;48.652;9.250;2023-02-28T07:43:40;12.00;;;5.93;;
10009;SDS011;5044;48.652;9.250;2023-02-28T07:46:08;12.40;;;6.68;;
10009;SDS011;5044;48.652;9.250;2023-02-28T07:48:36;10.85;;;4.70;;
10009;SDS011;5044;48.652;9.250;2023-02-28T07:51:04;5.03;;;3.13;;
10009;SDS011;5044;48.652;9.250;2023-02-28T07:53:31;9.13;;;3.95;;
10009;SDS011;5044;48.652;9.250;2023-02-28T07:55:59;9.23;;;6.15;;
10009;SDS011;5044;48.652;9.250;2023-02-28T07:58:27;8.32;;;5.07;;
10009;SDS011;5044;48.652;9.250;2023-02-28T08:00:55;10.70;;;5.30;;
10009;SDS011;5044;48.652;9.250;2023-02-28T08:03:23;6.57;;;4.18;;
10009;SDS011;5044;48.652;9.250;2023-02-28T08:05:50;5.85;;;3.55;;
10009;SDS011;5044;48.652;9.250;2023-02-28T08:08:20;8.80;;;4.60;;
10009;SDS011;5044;48.652;9.250;2023-02-28T08:10:47;8.50;;;4.88;;
10009;SDS011;5044;48.652;9.250;2023-02-28T08:13:14;7.30;;;3.25;;
10009;SDS011;5044;48.652;9.250;2023-02-28T08:15:41;14.63;;;5.90;;
10009;SDS011;5044;48.652;9.250;2023-02-28T08:18:10;8.18;;;4.38;;
10009;SDS011;5044;48.652;9.250;2023-02-28T08:20:37;9.35;;;4.45;;
10009;SDS011;5044;48.652;9.250;2023-02-28T08:23:04;9.38;;;5.15;;
10009;SDS011;5044;48.652;9.250;2023-02-28T08:25:32;9.05;;;4.85;;
10009;SDS011;5044;48.652;9.250;2023-02-28T08:27:59;4.15;;;2.50;;
10009;SDS011;5044;48.652;9.250;2023-02-28T08:30:26;9.32;;;4.00;;
10009;SDS011;5044;48.652;9.250;2023-02-28T08:32:53;9.65;;;5.07;;
10009;SDS011;5044;48.652;9.250;2023-02-28T08:35:20;9.05;;;4.85;;
10009;SDS011;5044;48.652;9.250;2023-02-28T08:37:47;5.85;;;3.38;;
10009;SDS011;5044;48.652;9.250;2023-02-28T08:40:14;9.35;;;5.15;;
10009;SDS011;5044;48.652;9.250;2023-02-28T08:42:44;7.60;;;3.85;;
10009;SDS011;5044;48.652;9.250;2023-02-28T08:45:12;7.57;;;4.53;;
10009;SDS011;5044;48.652;9.250;2023-02-28T08:47:39;16.75;;;9.18;;
10009;SDS011;5044;48.652;9.250;2023-02-28T08:50:07;8.95;;;5.85;;
10009;SDS011;5044;48.652;9.250;2023-02-28T08:52:35;8.48;;;5.63;;
10009;SDS011;5044;48.652;9.250;2023-02-28T08:55:03;9.10;;;3.88;;
10009;SDS011;5044;48.652;9.250;2023-02-28T08:57:30;8.45;;;5.18;;
10009;SDS011;5044;48.652;9.250;2023-02-28T08:59:59;7.70;;;4.70;;
10009;SDS011;5044;48.652;9.250;2023-02-28T09:02:29;7.45;;;3.55;;
10009;SDS011;5044;48.652;9.250;2023-02-28T09:04:56;6.93;;;4.32;;
10009;SDS011;5044;48.652;9.250;2023-02-28T09:07:23;7.13;;;4.03;;
10009;SDS011;5044;48.652;9.250;2023-02-28T09:09:50;8.35;;;4.35;;
10009;SDS011;5044;48.652;9.250;2023-02-28T09:12:20;7.20;;;4.43;;
10009;SDS011;5044;48.652;9.250;2023-02-28T09:14:47;6.90;;;4.55;;
10009;SDS011;5044;48.652;9.250;2023-02-28T09:17:16;8.55;;;5.13;;
10009;SDS011;5044;48.652;9.250;2023-02-28T09:19:43;10.38;;;4.43;;
10009;SDS011;5044;48.652;9.250;2023-02-28T09:22:11;9.07;;;4.57;;
10009;SDS011;5044;48.652;9.250;2023-02-28T09:24:38;11.00;;;4.35;;
10009;SDS011;5044;48.652;9.250;2023-02-28T09:27:05;8.68;;;4.20;;
10009;SDS011;5044;48.652;9.250;2023-02-28T09:29:32;7.78;;;4.05;;
10009;SDS011;5044;48.652;9.250;2023-02-28T09:32:00;3.58;;;2.97;;
10009;SDS011;5044;48.652;9.250;2023-02-28T09:34:29;8.20;;;3.72;;
10009;SDS011;5044;48.652;9.250;2023-02-28T09:36:56;6.13;;;3.70;;
10009;SDS011;5044;48.652;9.250;2023-02-28T09:39:23;6.38;;;4.05;;
10009;SDS011;5044;48.652;9.250;2023-02-28T09:41:52;8.25;;;4.40;;
10009;SDS011;5044;48.652;9.250;2023-02-28T09:44:21;6.82;;;4.15;;
10009;SDS011;5044;48.652;9.250;2023-02-28T09:46:55;6.93;;;3.67;;
10009;SDS011;5044;48.652;9.250;2023-02-28T09:49:28;7.65;;;4.28;;
10009;SDS011;5044;48.652;9.250;2023-02-28T09:52:04;8.45;;;4.90;;
10009;SDS011;5044;48.652;9.250;2023-02-28T09:54:34;7.25;;;3.88;;
10009;SDS011;5044;48.652;9.250;2023-02-28T09:57:04;9.02;;;4.50;;
10009;SDS011;5044;48.652;9.250;2023-02-28T09:59:39;6.95;;;3.78;;
10009;SDS011;5044;48.652;9.250;2023-02-28T10:02:21;9.65;;;4.60;;
10009;SDS011;5044;48.652;9.250;2023-02-28T10:05:07;9.30;;;5.20;;
10009;SDS011;5044;48.652;9.250;2023-02-28T10:07:41;9.80;;;5.03;;
10009;SDS011;5044;48.652;9.250;2023-02-28T10:10:25;11.98;;;6.90;;
10009;SDS011;5044;48.652;9.250;2023-02-28T10:12:56;6.45;;;4.35;;
10009;SDS011;5044;48.652;9.250;2023-02-28T10:15:25;9.63;;;4.28;;
10009;SDS011;5044;48.652;9.250;2023-02-28T10:17:57;7.75;;;4.55;;
10009;SDS011;5044;48.652;9.250;2023-02-28T10:20:28;7.25;;;4.60;;
10009;SDS011;5044;48.652;9.250;2023-02-28T10:23:00;7.80;;;4.40;;
10009;SDS011;5044;48.652;9.250;2023-02-28T10:25:33;11.07;;;5.20;;
10009;SDS011;5044;48.652;9.250;2023-02-28T10:28:05;7.55;;;4.68;;
10009;SDS011;5044;48.652;9.250;2023-02-28T10:30:37;6.38;;;4.25;;
10009;SDS011;5044;48.652;9.250;2023-02-28T10:33:09;7.35;;;4.78;;
10009;SDS011;5044;48.652;9.250;2023-02-28T10:35:46;10.65;;;4.10;;
10009;SDS011;5044;48.652;9.250;2023-02-28T10:38:15;9.27;;;4.93;;
10009;SDS011;5044;48.652;9.250;2023-02-28T10:40:43;10.70;;;5.78;;
10009;SDS011;5044;48.652;9.250;2023-02-28T10:43:18;6.85;;;4.03;;
10009;SDS011;5044;48.652;9.250;2023-02-28T10:45:53;7.15;;;4.25;;
10009;SDS011;5044;48.652;9.250;2023-02-28T10:48:29;9.48;;;4.85;;
10009;SDS011;5044;48.652;9.250;2023-02-28T10:51:00;6.13;;;3.83;;
10009;SDS011;5044;48.652;9.250;2023-02-28T10:53:30;8.73;;;4.72;;
10009;SDS011;5044;48.652;9.250;2023-02-28T10:56:00;9.20;;;4.63;;
10009;SDS011;5044;48.652;9.250;2023-02-28T10:58:31;7.75;;;5.00;;
10009;SDS011;5044;48.652;9.250;2023-02-28T11:01:11;9.50;;;5.20;;
10009;SDS011;5044;48.652;9.250;2023-02-28T11:03:40;11.32;;;4.82;;
10009;SDS011;5044;48.652;9.250;2023-02-28T11:06:13;5.50;;;3.70;;
10009;SDS011;5044;48.652;9.250;2023-02-28T11:08:47;6.70;;;4.40;;
10009;SDS011;5044;48.652;9.250;2023-02-28T11:11:17;9.93;;;5.85;;
10009;SDS011;5044;48.652;9.250;2023-02-28T11:13:46;7.80;;;5.03;;
10009;SDS011;5044;48.652;9.250;2023-02-28T11:16:15;10.55;;;6.30;;
10009;SDS011;5044;48.652;9.250;2023-02-28T11:18:43;8.20;;;5.45;;
10009;SDS011;5044;48.652;9.250;2023-02-28T11:21:19;7.88;;;5.35;;
10009;SDS011;5044;48.652;9.250;2023-02-28T11:23:50;8.35;;;5.78;;
10009;SDS011;5044;48.652;9.250;2023-02-28T11:26:40;10.43;;;6.60;;
10009;SDS011;5044;48.652;9.250;2023-02-28T11:29:10;6.47;;;3.80;;
10009;SDS011;5044;48.652;9.250;2023-02-28T11:31:42;9.43;;;5.82;;
10009;SDS011;5044;48.652;9.250;2023-02-28T11:34:25;8.05;;;5.25;;
10009;SDS011;5044;48.652;9.250;2023-02-28T11:36:55;9.23;;;5.68;;
10009;SDS011;5044;48.652;9.250;2023-02-28T11:39:23;7.20;;;4.63;;
10009;SDS011;5044;48.652;9.250;2023-02-28T11:41:55;9.48;;;4.90;;
10009;SDS011;5044;48.652;9.250;2023-02-28T11:44:47;10.68;;;5.82;;
10009;SDS011;5044;48.652;9.250;2023-02-28T11:47:30;7.35;;;5.25;;
10009;SDS011;5044;48.652;9.250;2023-02-28T11:50:04;10.07;;;6.22;;
10009;SDS011;5044;48.652;9.250;2023-02-28T11:52:45;9.15;;;4.53;;
10009;SDS011;5044;48.652;9.250;2023-02-28T11:55:19;8.70;;;5.30;;
10009;SDS011;5044;48.652;9.250;2023-02-28T11:57:59;7.07;;;4.43;;
10009;SDS011;5044;48.652;9.250;2023-02-28T12:03:32;8.13;;;4.70;;
10009;SDS011;5044;48.652;9.250;2023-02-28T12:06:13;10.05;;;6.85;;
10009;SDS011;5044;48.652;9.250;2023-02-28T12:08:53;9.18;;;5.05;;
10009;SDS011;5044;48.652;9.250;2023-02-28T12:11:30;7.40;;;5.60;;
10009;SDS011;5044;48.652;9.250;2023-02-28T12:14:17;7.13;;;5.28;;
10009;SDS011;5044;48.652;9.250;2023-02-28T12:17:08;8.40;;;5.47;;
10009;SDS011;5044;48.652;9.250;2023-02-28T12:19:45;9.63;;;5.38;;
10009;SDS011;5044;48.652;9.250;2023-02-28T12:22:30;6.55;;;5.07;;
10009;SDS011;5044;48.652;9.250;2023-02-28T12:25:17;9.70;;;6.28;;
10009;SDS011;5044;48.652;9.250;2023-02-28T12:28:14;8.05;;;4.97;;
10009;SDS011;5044;48.652;9.250;2023-02-28T12:30:46;12.88;;;5.68;;
10009;SDS011;5044;48.652;9.250;2023-02-28T12:33:17;10.35;;;5.95;;
10009;SDS011;5044;48.652;9.250;2023-02-28T12:35:49;11.15;;;6.38;;
10009;SDS011;5044;48.652;9.250;2023-02-28T12:38:21;8.00;;;5.53;;
10009;SDS011;5044;48.652;9.250;2023-02-28T12:40:58;9.60;;;5.35;;
10009;SDS011;5044;48.652;9.250;2023-02-28T12:43:30;10.80;;;5.57;;
10009;SDS011;5044;48.652;9.250;2023-02-28T12:46:00;9.75;;;5.00;;
10009;SDS011;5044;48.652;9.250;2023-02-28T12:48:36;9.75;;;6.30;;
10009;SDS011;5044;48.652;9.250;2023-02-28T12:51:06;8.63;;;5.70;;
10009;SDS011;5044;48.652;9.250;2023-02-28T12:53:36;8.85;;;5.72;;
10009;SDS011;5044;48.652;9.250;2023-02-28T12:56:15;8.50;;;5.90;;
10009;SDS011;5044;48.652;9.250;2023-02-28T12:58:47;7.53;;;5.63;;
10009;SDS011;5044;48.652;9.250;2023-02-28T13:01:23;8.02;;;5.63;;
10009;SDS011;5044;48.652;9.250;2023-02-28T13:07:04;7.53;;;5.82;;
10009;SDS011;5044;48.652;9.250;2023-02-28T13:09:45;8.90;;;5.95;;
10009;SDS011;5044;48.652;9.250;2023-02-28T13:12:20;6.97;;;4.93;;
10009;SDS011;5044;48.652;9.250;2023-02-28T13:14:48;9.25;;;5.35;;
10009;SDS011;5044;48.652;9.250;2023-02-28T13:17:17;7.07;;;4.80;;
10009;SDS011;5044;48.652;9.250;2023-02-28T13:19:46;7.95;;;5.30;;
10009;SDS011;5044;48.652;9.250;2023-02-28T13:22:36;8.93;;;5.78;;
10009;SDS011;5044;48.652;9.250;2023-02-28T13:36:41;8.25;;;5.22;;
10009;SDS011;5044;48.652;9.250;2023-02-28T13:42:23;10.25;;;6.68;;
10009;SDS011;5044;48.652;9.250;2023-02-28T13:45:21;7.65;;;5.85;;
10009;SDS011;5044;48.652;9.250;2023-02-28T13:47:59;15.25;;;8.88;;
10009;SDS011;5044;48.652;9.250;2023-02-28T13:50:29;9.80;;;6.95;;
10009;SDS011;5044;48.652;9.250;2023-02-28T13:53:17;9.65;;;6.47;;
10009;SDS011;5044;48.652;9.250;2023-02-28T13:55:58;9.60;;;5.80;;
10009;SDS011;5044;48.652;9.250;2023-02-28T13:58:36;14.95;;;7.55;;
10009;SDS011;5044;48.652;9.250;2023-02-28T14:01:15;10.10;;;6.90;;
10009;SDS011;5044;48.652;9.250;2023-02-28T14:04:00;7.82;;;5.35;;
10009;SDS011;5044;48.652;9.250;2023-02-28T14:06:46;9.40;;;5.80;;
10009;SDS011;5044;48.652;9.250;2023-02-28T14:09:18;8.32;;;5.40;;
10009;SDS011;5044;48.652;9.250;2023-02-28T14:11:50;7.65;;;5.53;;
10009;SDS011;5044;48.652;9.250;2023-02-28T14:17:21;8.07;;;5.22;;
10009;SDS011;5044;48.652;9.250;2023-02-28T14:19:50;9.80;;;6.07;;
10009;SDS011;5044;48.652;9.250;2023-02-28T14:22:21;9.45;;;5.78;;
10009;SDS011;5044;48.652;9.250;2023-02-28T14:25:11;7.78;;;4.95;;
10009;SDS011;5044;48.652;9.250;2023-02-28T14:27:49;8.07;;;5.57;;
10009;SDS011;5044;48.652;9.250;2023-02-28T14:30:36;12.55;;;6.97;;
10009;SDS011;5044;48.652;9.250;2023-02-28T14:33:22;10.48;;;4.72;;
10009;SDS011;5044;48.652;9.250;2023-02-28T14:36:03;7.18;;;4.70;;
10009;SDS011;5044;48.652;9.250;2023-02-28T14:38:36;8.70;;;6.30;;
10009;SDS011;5044;48.652;9.250;2023-02-28T14:41:12;10.07;;;5.70;;
10009;SDS011;5044;48.652;9.250;2023-02-28T14:43:51;12.00;;;6.13;;
10009;SDS011;5044;48.652;9.250;2023-02-28T14:46:20;12.73;;;5.38;;
10009;SDS011;5044;48.652;9.250;2023-02-28T14:48:49;26.17;;;6.00;;
10009;SDS011;5044;48.652;9.250;2023-02-28T14:51:21;8.15;;;4.60;;
10009;SDS011;5044;48.652;9.250;2023-02-28T14:53:51;7.85;;;5.00;;
10009;SDS011;5044;48.652;9.250;2023-02-28T14:56:22;13.95;;;5.32;;
10009;SDS011;5044;48.652;9.250;2023-02-28T14:58:52;7.28;;;5.00;;
10009;SDS011;5044;48.652;9.250;2023-02-28T15:01:21;9.75;;;4.55;;
10009;SDS011;5044;48.652;9.250;2023-02-28T15:03:56;7.70;;;4.13;;
10009;SDS011;5044;48.652;9.250;2023-02-28T15:06:27;8.93;;;4.97;;
10009;SDS011;5044;48.652;9.250;2023-02-28T15:09:13;7.78;;;4.32;;
10009;SDS011;5044;48.652;9.250;2023-02-28T15:11:42;6.43;;;5.20;;
10009;SDS011;5044;48.652;9.250;2023-02-28T15:14:14;9.80;;;5.70;;
10009;SDS011;5044;48.652;9.250;2023-02-28T15:19:13;10.57;;;4.95;;
10009;SDS011;5044;48.652;9.250;2023-02-28T15:21:48;6.25;;;4.63;;
10009;SDS011;5044;48.652;9.250;2023-02-28T15:26:50;9.48;;;6.15;;
10009;SDS011;5044;48.652;9.250;2023-02-28T15:29:20;10.73;;;6.15;;
10009;SDS011;5044;48.652;9.250;2023-02-28T15:31:50;12.98;;;5.75;;
10009;SDS011;5044;48.652;9.250;2023-02-28T15:34:22;9.43;;;5.10;;
10009;SDS011;5044;48.652;9.250;2023-02-28T15:36:55;13.45;;;5.18;;
10009;SDS011;5044;48.652;9.250;2023-02-28T15:39:23;17.98;;;6.78;;
10009;SDS011;5044;48.652;9.250;2023-02-28T15:41:54;7.13;;;4.53;;
10009;SDS011;5044;48.652;9.250;2023-02-28T15:44:36;8.63;;;4.93;;
10009;SDS011;5044;48.652;9.250;2023-02-28T15:47:03;9.43;;;5.43;;
10009;SDS011;5044;48.652;9.250;2023-02-28T15:49:35;10.63;;;5.53;;
10009;SDS011;5044;48.652;9.250;2023-02-28T15:52:10;8.20;;;5.32;;
10009;SDS011;5044;48.652;9.250;2023-02-28T15:54:40;9.55;;;5.75;;
10009;SDS011;5044;48.652;9.250;2023-02-28T15:57:11;22.63;;;6.20;;
10009;SDS011;5044;48.652;9.250;2023-02-28T16:02:15;12.73;;;5.35;;
10009;SDS011;5044;48.652;9.250;2023-02-28T16:04:58;9.55;;;5.30;;
10009;SDS011;5044;48.652;9.250;2023-02-28T16:07:27;9.82;;;4.90;;
10009;SDS011;5044;48.652;9.250;2023-02-28T16:09:55;11.73;;;5.35;;
10009;SDS011;5044;48.652;9.250;2023-02-28T16:12:24;6.28;;;4.88;;
10009;SDS011;5044;48.652;9.250;2023-02-28T16:14:53;9.13;;;5.38;;